createdAt,value
2022-08-22T00:04:37.525Z,64.37
2022-08-22T00:10:02.179Z,62.65
2022-08-22T00:15:42.638Z,62.05
2022-08-22T00:21:12.820Z,61.14
2022-08-22T00:26:45.408Z,60.49
2022-08-22T00:32:08.676Z,60.82
2022-08-22T00:37:51.103Z,60.43
2022-08-22T00:43:35.452Z,60.43
2022-08-22T00:49:13.973Z,60.99
2022-08-22T00:55:10.293Z,61.93
2022-08-22T01:00:23.237Z,61.09
2022-08-22T01:05:58.177Z,61.70
2022-08-22T01:11:26.464Z,61.63
2022-08-22T01:17:11.824Z,60.86
2022-08-22T01:23:14.698Z,59.86
2022-08-22T01:28:37.366Z,58.49
2022-08-22T01:34:36.559Z,65.61
2022-08-22T01:40:18.914Z,64.51
2022-08-22T01:45:57.701Z,62.53
2022-08-22T01:51:57.173Z,62.46
2022-08-22T01:57:09.602Z,61.73
2022-08-22T02:02:53.560Z,62.75
2022-08-22T02:08:21.839Z,62.16
2022-08-22T02:14:00.973Z,61.85
2022-08-22T02:19:10.557Z,62.29
2022-08-22T02:24:26.243Z,62.34
2022-08-22T02:29:51.020Z,62.21
2022-08-22T02:35:49.925Z,62.67
2022-08-22T02:41:36.715Z,62.56
2022-08-22T02:47:29.328Z,62.64
2022-08-22T02:52:43.486Z,63.75
2022-08-22T02:58:25.245Z,65.65
2022-08-22T03:03:39.210Z,65.57
2022-08-22T03:09:30.151Z,66.35
2022-08-22T03:15:19.288Z,66.94
2022-08-22T03:21:09.963Z,67.82
2022-08-22T03:26:28.651Z,68.03
2022-08-22T03:31:33.689Z,68.36
2022-08-22T03:36:38.539Z,69.21
2022-08-22T03:42:21.260Z,69.33
2022-08-22T03:48:04.468Z,69.32
2022-08-22T03:53:47.162Z,69.85
2022-08-22T03:59:02.798Z,68.88
2022-08-22T04:04:25.968Z,68.89
2022-08-22T04:09:53.235Z,69.24
2022-08-22T04:15:12.116Z,69.81
2022-08-22T04:20:51.549Z,69.58
2022-08-22T04:26:08.561Z,70.70
2022-08-22T04:31:27.896Z,70.06
2022-08-22T04:36:51.339Z,70.76
2022-08-22T04:42:33.454Z,71.17
2022-08-22T04:48:20.760Z,71.07
2022-08-22T04:53:50.596Z,71.75
2022-08-22T04:59:18.424Z,67.39
2022-08-22T05:04:33.110Z,67.25
2022-08-22T05:09:43.718Z,67.29
2022-08-22T05:14:58.908Z,67.58
2022-08-22T05:20:14.208Z,68.50
2022-08-22T05:25:42.301Z,66.06
2022-08-22T05:30:49.824Z,65.65
2022-08-22T05:36:08.769Z,66.55
2022-08-22T05:41:24.223Z,64.31
2022-08-22T05:46:34.029Z,63.68
2022-08-22T05:51:51.260Z,62.91
2022-08-22T05:57:10.650Z,62.11
2022-08-22T06:02:21.168Z,61.69
2022-08-22T06:07:51.480Z,61.66
2022-08-22T06:13:03.607Z,62.78
2022-08-22T06:18:15.870Z,64.54
2022-08-22T06:23:31.801Z,65.28
2022-08-22T06:28:55.430Z,66.42
2022-08-22T06:34:04.296Z,66.66
2022-08-22T06:39:31.600Z,67.44
2022-08-22T06:45:12.779Z,67.71
2022-08-22T06:50:43.966Z,68.68
2022-08-22T06:55:57.488Z,69.06
2022-08-22T07:01:14.920Z,68.90
2022-08-22T07:06:37.701Z,69.46
2022-08-22T07:11:45.403Z,69.19
2022-08-22T07:17:02.634Z,69.00
2022-08-22T07:22:30.407Z,68.94
2022-08-22T07:28:15.878Z,68.98
2022-08-22T07:33:41.009Z,67.23
2022-08-22T07:39:13.891Z,67.65
2022-08-22T07:44:24.942Z,67.32
2022-08-22T07:49:51.253Z,66.03
2022-08-22T07:55:20.640Z,66.32
2022-08-22T08:00:29.421Z,64.87
2022-08-22T08:05:38.321Z,64.84
2022-08-22T08:10:43.326Z,65.67
2022-08-22T08:15:50.181Z,64.83
2022-08-22T08:21:04.529Z,63.87
2022-08-22T08:26:17.944Z,63.76
2022-08-22T08:31:43.145Z,64.06
2022-08-22T08:37:24.512Z,64.91
2022-08-22T08:43:21.038Z,65.04
2022-08-22T08:49:12.767Z,65.45
2022-08-22T08:55:19.656Z,65.50
2022-08-22T09:01:08.200Z,66.48
2022-08-22T09:07:03.069Z,66.35
2022-08-22T09:12:21.430Z,64.72
2022-08-22T09:17:28.221Z,64.75
2022-08-22T09:23:02.453Z,64.03
2022-08-22T09:28:17.846Z,64.86
2022-08-22T09:33:32.067Z,64.71
2022-08-22T09:39:06.745Z,65.00
2022-08-22T09:44:34.515Z,65.42
2022-08-22T09:50:12.929Z,64.85
2022-08-22T09:55:42.953Z,64.05
2022-08-22T10:01:09.122Z,63.39
2022-08-22T10:06:25.201Z,63.37
2022-08-22T10:11:50.133Z,63.59
2022-08-22T10:17:12.511Z,63.40
2022-08-22T10:22:57.565Z,62.97
2022-08-22T10:28:43.290Z,62.10
2022-08-22T10:34:13.858Z,62.01
2022-08-22T10:39:29.871Z,61.95
2022-08-22T10:45:23.565Z,62.01
2022-08-22T10:51:04.106Z,61.92
2022-08-22T10:56:22.559Z,61.83
2022-08-22T11:01:49.141Z,61.37
2022-08-22T11:07:22.517Z,60.60
2022-08-22T11:12:43.576Z,60.48
2022-08-22T11:18:24.000Z,58.12
2022-08-22T11:24:05.050Z,62.44
2022-08-22T11:29:27.734Z,59.49
2022-08-22T11:34:51.871Z,58.43
2022-08-22T11:40:14.519Z,62.49
2022-08-22T11:45:31.190Z,58.19
2022-08-22T11:50:56.424Z,58.49
2022-08-22T11:56:40.187Z,61.58
2022-08-22T12:01:56.403Z,62.14
2022-08-22T12:07:28.602Z,57.75
2022-08-22T12:13:04.510Z,59.27
2022-08-22T12:18:30.152Z,60.88
2022-08-22T12:23:50.288Z,61.88
2022-08-22T12:29:59.462Z,62.70
2022-08-22T12:35:29.935Z,56.29
2022-08-22T12:41:12.313Z,58.20
2022-08-22T12:46:46.781Z,59.72
2022-08-22T12:52:12.567Z,59.63
2022-08-22T12:57:50.512Z,60.16
2022-08-22T13:03:10.012Z,63.45
2022-08-22T13:08:42.037Z,56.56
2022-08-22T13:13:56.470Z,57.71
2022-08-22T13:19:14.605Z,59.46
2022-08-22T13:24:39.503Z,58.77
2022-08-22T13:29:58.072Z,58.98
2022-08-22T13:35:05.678Z,58.94
2022-08-22T13:40:22.084Z,58.14
2022-08-22T13:45:30.763Z,57.70
2022-08-22T13:51:08.148Z,57.92
2022-08-22T13:56:34.328Z,58.58
2022-08-22T14:02:00.480Z,58.45
2022-08-22T14:07:06.729Z,57.79
2022-08-22T14:12:19.290Z,57.70
2022-08-22T14:17:42.659Z,57.26
2022-08-22T14:23:03.985Z,56.89
2022-08-22T14:28:27.464Z,57.22
2022-08-22T14:34:10.812Z,58.18
2022-08-22T14:39:50.903Z,58.56
2022-08-22T14:45:10.551Z,59.63
2022-08-22T14:50:56.486Z,60.36
2022-08-22T14:56:12.339Z,61.10
2022-08-22T15:01:26.919Z,61.78
2022-08-22T15:06:54.610Z,62.13
2022-08-22T15:12:01.769Z,63.96
2022-08-22T15:17:11.783Z,61.32
2022-08-22T15:22:28.750Z,55.30
2022-08-22T15:27:43.369Z,56.51
2022-08-22T15:32:49.387Z,55.18
2022-08-22T15:38:06.480Z,55.43
2022-08-22T15:43:35.592Z,55.99
2022-08-22T15:48:43.070Z,54.21
2022-08-22T15:54:24.887Z,53.45
2022-08-22T15:59:53.491Z,52.06
2022-08-22T16:05:16.309Z,51.02
2022-08-22T16:10:23.353Z,49.20
2022-08-22T16:15:52.895Z,49.52
2022-08-22T16:21:19.301Z,49.20
2022-08-22T16:26:33.085Z,49.12
2022-08-22T16:31:57.260Z,49.57
2022-08-22T16:37:04.679Z,50.13
2022-08-22T16:42:14.816Z,50.75
2022-08-22T16:47:37.609Z,51.57
2022-08-22T16:53:02.314Z,52.41
2022-08-22T16:58:59.208Z,53.31
2022-08-22T17:05:22.494Z,54.46
2022-08-22T17:10:51.191Z,56.24
2022-08-22T17:16:41.073Z,58.25
2022-08-22T17:22:07.819Z,59.45
2022-08-22T17:27:40.345Z,60.93
2022-08-22T17:33:03.432Z,62.25
2022-08-22T17:38:19.795Z,61.65
2022-08-22T17:44:15.201Z,56.83
2022-08-22T17:49:34.066Z,59.23
2022-08-22T17:55:02.862Z,61.23
2022-08-22T18:00:19.510Z,66.06
2022-08-22T18:05:46.179Z,58.58
2022-08-22T18:11:17.192Z,58.06
2022-08-22T18:16:46.659Z,60.66
2022-08-22T18:21:56.725Z,66.15
2022-08-22T18:27:29.983Z,60.92
2022-08-22T18:33:01.514Z,56.62
2022-08-22T18:38:21.235Z,58.84
2022-08-22T18:43:42.468Z,61.05
2022-08-22T18:49:13.708Z,67.99
2022-08-22T18:54:37.093Z,61.96
2022-08-22T19:00:21.815Z,56.04
2022-08-22T19:05:42.703Z,57.30
2022-08-22T19:10:55.087Z,59.97
2022-08-22T19:16:21.645Z,67.65
2022-08-22T19:21:57.086Z,62.08
2022-08-22T19:27:21.977Z,57.25
2022-08-22T19:32:47.635Z,59.51
2022-08-22T19:38:05.832Z,65.75
2022-08-22T19:43:42.514Z,62.31
2022-08-22T19:48:53.199Z,57.02
2022-08-22T19:54:02.907Z,57.76
2022-08-22T19:59:23.714Z,60.13
2022-08-22T20:04:50.171Z,68.20
2022-08-22T20:10:15.688Z,62.29
2022-08-22T20:15:26.387Z,58.61
2022-08-22T20:20:58.985Z,57.70
2022-08-22T20:26:04.558Z,60.31
2022-08-22T20:31:24.833Z,67.46
2022-08-22T20:36:30.445Z,61.99
2022-08-22T20:41:46.356Z,58.21
2022-08-22T20:46:58.135Z,58.29
2022-08-22T20:52:22.302Z,60.00
2022-08-22T20:57:27.120Z,67.96
2022-08-22T21:02:36.514Z,63.19
2022-08-22T21:08:02.661Z,59.77
2022-08-22T21:13:38.110Z,56.79
2022-08-22T21:18:54.226Z,58.91
2022-08-22T21:24:10.026Z,66.89
2022-08-22T21:29:13.851Z,62.98
2022-08-22T21:34:43.196Z,59.31
2022-08-22T21:39:53.091Z,58.37
2022-08-22T21:45:27.362Z,62.48
2022-08-22T21:50:38.873Z,66.27
2022-08-22T21:55:47.358Z,60.64
2022-08-22T22:00:57.634Z,57.59
2022-08-22T22:06:06.013Z,59.81
2022-08-22T22:11:16.697Z,66.47
2022-08-22T22:16:28.078Z,62.13
2022-08-22T22:21:32.434Z,58.92
2022-08-22T22:26:36.963Z,58.83
2022-08-22T22:31:44.176Z,63.58
2022-08-22T22:36:48.316Z,65.19
2022-08-22T22:41:52.549Z,60.46
2022-08-22T22:47:05.420Z,58.15
2022-08-22T22:52:11.649Z,59.45
2022-08-22T22:57:19.982Z,66.52
2022-08-22T23:02:32.951Z,62.30
2022-08-22T23:07:39.215Z,59.49
2022-08-22T23:12:44.598Z,58.26
2022-08-22T23:17:49.332Z,62.25
2022-08-22T23:22:54.088Z,66.13
2022-08-22T23:27:58.565Z,61.13
2022-08-22T23:33:03.190Z,58.34
2022-08-22T23:38:07.782Z,60.60
2022-08-22T23:43:11.967Z,66.73
2022-08-22T23:48:16.103Z,62.54
2022-08-22T23:53:22.996Z,60.40
2022-08-22T23:58:27.250Z,58.23
